aviador You're here:

YNTN Decoded Metar

in
Report Time2018-04-26 13:00:00
UTC Time2018-04-26 13:16:06
Flight Rules vfr VFR
Wind190° at 03 kt
W.Decomp.*RWY 14: 1.9 kt HW 2.3 kt RCW
W.Rank190° ranks 6
Current wind is below 190° avg. (7.8)
Visibility9999 m
Phenomena:N/A
Clouds:N/A
Expected CloudBase > 5,600 ft AGL from Temp-Dew spread
CeilingNone
Temp25°C
Dew Point11°C (42% RH)
AAT24.3°C
QNH1012 hPa
Raw Report
METAR YNTN 261300Z AUTO 19003KT 9999 // NCD 25/11 Q1012=

Extra information for YNTN:More info

Social comments